sensor_id;sensor_type;location;lat;lon;timestamp;pressure;altitude;pressure_sealevel;temperature;humidity
34034;BME280;63481;52.588;22.472;2023-03-01T00:00:13;101458.04;;;-2.68;83.58
34034;BME280;63481;52.588;22.472;2023-03-01T00:01:28;101457.05;;;-2.67;83.62
34034;BME280;63481;52.588;22.472;2023-03-01T00:02:21;101458.00;;;-2.68;83.47
34034;BME280;63481;52.588;22.472;2023-03-01T00:03:14;101456.77;;;-2.68;83.18
34034;BME280;63481;52.588;22.472;2023-03-01T00:04:07;101458.50;;;-2.67;83.39
34034;BME280;63481;52.588;22.472;2023-03-01T00:05:00;101458.38;;;-2.66;83.50
34034;BME280;63481;52.588;22.472;2023-03-01T00:05:52;101459.95;;;-2.66;83.40
34034;BME280;63481;52.588;22.472;2023-03-01T00:06:45;101460.36;;;-2.64;83.13
34034;BME280;63481;52.588;22.472;2023-03-01T00:07:38;101462.19;;;-2.62;83.05
34034;BME280;63481;52.588;22.472;2023-03-01T00:08:31;101460.44;;;-2.62;83.40
34034;BME280;63481;52.588;22.472;2023-03-01T00:09:25;101463.90;;;-2.62;83.85
34034;BME280;63481;52.588;22.472;2023-03-01T00:10:17;101463.92;;;-2.62;83.39
34034;BME280;63481;52.588;22.472;2023-03-01T00:11:16;101465.17;;;-2.60;83.39
34034;BME280;63481;52.588;22.472;2023-03-01T00:12:12;101465.81;;;-2.59;83.04
34034;BME280;63481;52.588;22.472;2023-03-01T00:13:05;101469.05;;;-2.58;82.86
34034;BME280;63481;52.588;22.472;2023-03-01T00:14:00;101466.46;;;-2.58;83.12
34034;BME280;63481;52.588;22.472;2023-03-01T00:15:02;101463.88;;;-2.58;83.56
34034;BME280;63481;52.588;22.472;2023-03-01T00:15:57;101461.48;;;-2.59;83.26
34034;BME280;63481;52.588;22.472;2023-03-01T00:16:49;101464.23;;;-2.61;83.40
34034;BME280;63481;52.588;22.472;2023-03-01T00:17:42;101457.31;;;-2.62;83.51
34034;BME280;63481;52.588;22.472;2023-03-01T00:18:35;101459.56;;;-2.62;83.53
34034;BME280;63481;52.588;22.472;2023-03-01T00:19:28;101460.67;;;-2.63;83.44
34034;BME280;63481;52.588;22.472;2023-03-01T00:20:20;101460.04;;;-2.64;83.67
34034;BME280;63481;52.588;22.472;2023-03-01T00:21:13;101461.10;;;-2.65;83.57
34034;BME280;63481;52.588;22.472;2023-03-01T00:22:06;101460.27;;;-2.62;83.31
34034;BME280;63481;52.588;22.472;2023-03-01T00:22:59;101460.27;;;-2.62;83.28
34034;BME280;63481;52.588;22.472;2023-03-01T00:23:52;101458.44;;;-2.64;83.31
34034;BME280;63481;52.588;22.472;2023-03-01T00:24:45;101452.84;;;-2.63;83.24
34034;BME280;63481;52.588;22.472;2023-03-01T00:25:42;101457.38;;;-2.63;83.39
34034;BME280;63481;52.588;22.472;2023-03-01T00:26:36;101451.95;;;-2.66;83.47
34034;BME280;63481;52.588;22.472;2023-03-01T00:27:28;101454.40;;;-2.69;83.63
34034;BME280;63481;52.588;22.472;2023-03-01T00:28:21;101456.80;;;-2.68;83.78
34034;BME280;63481;52.588;22.472;2023-03-01T00:29:14;101455.23;;;-2.68;83.70
34034;BME280;63481;52.588;22.472;2023-03-01T00:30:07;101456.39;;;-2.70;83.50
34034;BME280;63481;52.588;22.472;2023-03-01T00:31:10;101453.52;;;-2.68;83.52
34034;BME280;63481;52.588;22.472;2023-03-01T00:32:04;101450.02;;;-2.68;83.96
34034;BME280;63481;52.588;22.472;2023-03-01T00:32:57;101447.06;;;-2.74;83.89
34034;BME280;63481;52.588;22.472;2023-03-01T00:33:59;101446.65;;;-2.76;83.88
34034;BME280;63481;52.588;22.472;2023-03-01T00:34:52;101447.32;;;-2.78;83.89
34034;BME280;63481;52.588;22.472;2023-03-01T00:35:47;101449.14;;;-2.82;84.05
34034;BME280;63481;52.588;22.472;2023-03-01T00:36:39;101444.56;;;-2.81;84.18
34034;BME280;63481;52.588;22.472;2023-03-01T00:37:32;101443.66;;;-2.84;84.26
34034;BME280;63481;52.588;22.472;2023-03-01T00:38:26;101448.04;;;-2.81;84.28
34034;BME280;63481;52.588;22.472;2023-03-01T00:39:19;101442.46;;;-2.81;84.15
34034;BME280;63481;52.588;22.472;2023-03-01T00:40:13;101442.16;;;-2.79;84.24
34034;BME280;63481;52.588;22.472;2023-03-01T00:41:13;101440.52;;;-2.81;84.11
34034;BME280;63481;52.588;22.472;2023-03-01T00:42:07;101432.46;;;-2.83;84.06
34034;BME280;63481;52.588;22.472;2023-03-01T00:43:02;101431.02;;;-2.85;84.01
34034;BME280;63481;52.588;22.472;2023-03-01T00:43:55;101428.27;;;-2.85;84.64
34034;BME280;63481;52.588;22.472;2023-03-01T00:44:47;101426.05;;;-2.83;84.51
34034;BME280;63481;52.588;22.472;2023-03-01T00:45:40;101425.45;;;-2.79;84.51
34034;BME280;63481;52.588;22.472;2023-03-01T00:46:33;101425.10;;;-2.76;84.84
34034;BME280;63481;52.588;22.472;2023-03-01T00:47:28;101421.95;;;-2.76;84.71
34034;BME280;63481;52.588;22.472;2023-03-01T00:48:21;101419.52;;;-2.76;84.80
34034;BME280;63481;52.588;22.472;2023-03-01T00:49:15;101420.84;;;-2.78;84.78
34034;BME280;63481;52.588;22.472;2023-03-01T00:50:08;101419.09;;;-2.77;84.91
34034;BME280;63481;52.588;22.472;2023-03-01T00:51:19;101420.16;;;-2.78;84.63
34034;BME280;63481;52.588;22.472;2023-03-01T00:52:12;101414.79;;;-2.78;84.69
34034;BME280;63481;52.588;22.472;2023-03-01T00:53:05;101413.30;;;-2.80;84.46
34034;BME280;63481;52.588;22.472;2023-03-01T00:54:01;101417.66;;;-2.80;84.26
34034;BME280;63481;52.588;22.472;2023-03-01T00:54:57;101418.69;;;-2.80;84.63
34034;BME280;63481;52.588;22.472;2023-03-01T00:55:50;101419.02;;;-2.79;84.66
34034;BME280;63481;52.588;22.472;2023-03-01T00:56:42;101419.53;;;-2.79;84.78
34034;BME280;63481;52.588;22.472;2023-03-01T00:57:35;101416.71;;;-2.79;84.33
34034;BME280;63481;52.588;22.472;2023-03-01T00:58:28;101414.46;;;-2.76;84.44
34034;BME280;63481;52.588;22.472;2023-03-01T00:59:21;101415.30;;;-2.75;84.36
34034;BME280;63481;52.588;22.472;2023-03-01T01:00:14;101416.34;;;-2.75;84.47
34034;BME280;63481;52.588;22.472;2023-03-01T01:01:13;101421.49;;;-2.74;84.30
34034;BME280;63481;52.588;22.472;2023-03-01T01:02:12;101420.98;;;-2.74;84.09
34034;BME280;63481;52.588;22.472;2023-03-01T01:03:04;101421.07;;;-2.73;84.46
34034;BME280;63481;52.588;22.472;2023-03-01T01:04:09;101418.66;;;-2.73;84.33
34034;BME280;63481;52.588;22.472;2023-03-01T01:05:04;101411.55;;;-2.74;84.37
34034;BME280;63481;52.588;22.472;2023-03-01T01:06:00;101417.64;;;-2.74;84.21
34034;BME280;63481;52.588;22.472;2023-03-01T01:07:01;101418.42;;;-2.72;84.54
34034;BME280;63481;52.588;22.472;2023-03-01T01:07:54;101420.92;;;-2.73;84.57
34034;BME280;63481;52.588;22.472;2023-03-01T01:08:48;101421.14;;;-2.74;84.70
34034;BME280;63481;52.588;22.472;2023-03-01T01:09:41;101423.22;;;-2.74;84.89
34034;BME280;63481;52.588;22.472;2023-03-01T01:10:34;101425.41;;;-2.75;84.44
34034;BME280;63481;52.588;22.472;2023-03-01T01:11:28;101424.75;;;-2.79;84.30
34034;BME280;63481;52.588;22.472;2023-03-01T01:12:22;101425.93;;;-2.81;84.54
34034;BME280;63481;52.588;22.472;2023-03-01T01:13:14;101424.80;;;-2.83;84.72
34034;BME280;63481;52.588;22.472;2023-03-01T01:14:07;101423.71;;;-2.82;84.63
34034;BME280;63481;52.588;22.472;2023-03-01T01:15:00;101420.33;;;-2.78;84.86
34034;BME280;63481;52.588;22.472;2023-03-01T01:15:53;101417.81;;;-2.77;84.82
34034;BME280;63481;52.588;22.472;2023-03-01T01:16:46;101419.61;;;-2.75;85.03
34034;BME280;63481;52.588;22.472;2023-03-01T01:17:39;101419.85;;;-2.73;84.77
34034;BME280;63481;52.588;22.472;2023-03-01T01:18:32;101416.98;;;-2.71;84.80
34034;BME280;63481;52.588;22.472;2023-03-01T01:19:26;101416.22;;;-2.70;85.17
34034;BME280;63481;52.588;22.472;2023-03-01T01:20:19;101416.05;;;-2.71;84.98
34034;BME280;63481;52.588;22.472;2023-03-01T01:21:14;101412.79;;;-2.71;84.94
34034;BME280;63481;52.588;22.472;2023-03-01T01:22:08;101411.21;;;-2.71;85.11
34034;BME280;63481;52.588;22.472;2023-03-01T01:23:00;101409.28;;;-2.71;85.09
34034;BME280;63481;52.588;22.472;2023-03-01T01:23:54;101412.73;;;-2.70;85.00
34034;BME280;63481;52.588;22.472;2023-03-01T01:24:47;101412.89;;;-2.73;84.99
34034;BME280;63481;52.588;22.472;2023-03-01T01:25:39;101411.30;;;-2.75;85.05
34034;BME280;63481;52.588;22.472;2023-03-01T01:26:33;101412.65;;;-2.77;85.34
34034;BME280;63481;52.588;22.472;2023-03-01T01:27:26;101414.46;;;-2.81;85.29
34034;BME280;63481;52.588;22.472;2023-03-01T01:28:19;101412.72;;;-2.84;85.54
34034;BME280;63481;52.588;22.472;2023-03-01T01:29:12;101407.31;;;-2.87;85.47
34034;BME280;63481;52.588;22.472;2023-03-01T01:30:05;101407.27;;;-2.86;85.66
34034;BME280;63481;52.588;22.472;2023-03-01T01:30:58;101405.61;;;-2.85;85.87
34034;BME280;63481;52.588;22.472;2023-03-01T01:31:51;101401.98;;;-2.82;85.81
34034;BME280;63481;52.588;22.472;2023-03-01T01:32:44;101401.55;;;-2.81;85.71
34034;BME280;63481;52.588;22.472;2023-03-01T01:33:36;101400.73;;;-2.82;85.61
34034;BME280;63481;52.588;22.472;2023-03-01T01:34:29;101399.27;;;-2.83;85.57
34034;BME280;63481;52.588;22.472;2023-03-01T01:35:22;101400.17;;;-2.84;85.38
34034;BME280;63481;52.588;22.472;2023-03-01T01:36:16;101398.73;;;-2.81;85.19
34034;BME280;63481;52.588;22.472;2023-03-01T01:37:08;101395.86;;;-2.76;85.13
34034;BME280;63481;52.588;22.472;2023-03-01T01:38:01;101394.90;;;-2.77;85.00
34034;BME280;63481;52.588;22.472;2023-03-01T01:38:54;101389.48;;;-2.77;85.00
34034;BME280;63481;52.588;22.472;2023-03-01T01:39:47;101389.83;;;-2.80;85.08
34034;BME280;63481;52.588;22.472;2023-03-01T01:40:44;101391.41;;;-2.80;85.06
34034;BME280;63481;52.588;22.472;2023-03-01T01:41:37;101384.91;;;-2.79;85.08
34034;BME280;63481;52.588;22.472;2023-03-01T01:42:30;101386.45;;;-2.78;85.03
34034;BME280;63481;52.588;22.472;2023-03-01T01:44:08;101383.10;;;-2.78;85.00
34034;BME280;63481;52.588;22.472;2023-03-01T01:46:27;101384.86;;;-2.73;84.66
34034;BME280;63481;52.588;22.472;2023-03-01T01:47:22;101380.65;;;-2.75;84.78
34034;BME280;63481;52.588;22.472;2023-03-01T01:48:22;101382.63;;;-2.73;84.65
34034;BME280;63481;52.588;22.472;2023-03-01T01:49:35;101384.91;;;-2.71;84.53
34034;BME280;63481;52.588;22.472;2023-03-01T01:50:30;101384.59;;;-2.71;84.50
34034;BME280;63481;52.588;22.472;2023-03-01T01:51:39;101378.54;;;-2.72;84.63
34034;BME280;63481;52.588;22.472;2023-03-01T01:52:35;101375.60;;;-2.72;84.44
34034;BME280;63481;52.588;22.472;2023-03-01T01:53:30;101372.52;;;-2.70;84.35
34034;BME280;63481;52.588;22.472;2023-03-01T01:55:31;101370.53;;;-2.66;84.32
34034;BME280;63481;52.588;22.472;2023-03-01T01:56:25;101366.54;;;-2.66;84.36
34034;BME280;63481;52.588;22.472;2023-03-01T01:57:23;101364.00;;;-2.68;84.33
34034;BME280;63481;52.588;22.472;2023-03-01T01:58:19;101358.80;;;-2.68;84.82
34034;BME280;63481;52.588;22.472;2023-03-01T01:59:13;101359.20;;;-2.69;84.66
34034;BME280;63481;52.588;22.472;2023-03-01T02:00:16;101357.09;;;-2.66;84.39
34034;BME280;63481;52.588;22.472;2023-03-01T02:01:10;101353.95;;;-2.63;84.72
34034;BME280;63481;52.588;22.472;2023-03-01T02:02:04;101345.92;;;-2.63;84.41
34034;BME280;63481;52.588;22.472;2023-03-01T02:03:02;101347.69;;;-2.60;84.34
34034;BME280;63481;52.588;22.472;2023-03-01T02:03:55;101346.36;;;-2.56;83.95
34034;BME280;63481;52.588;22.472;2023-03-01T02:04:54;101345.24;;;-2.52;83.97
34034;BME280;63481;52.588;22.472;2023-03-01T02:05:55;101345.66;;;-2.50;83.89
34034;BME280;63481;52.588;22.472;2023-03-01T02:06:55;101347.64;;;-2.51;84.28
34034;BME280;63481;52.588;22.472;2023-03-01T02:07:50;101352.84;;;-2.48;83.70
34034;BME280;63481;52.588;22.472;2023-03-01T02:08:46;101352.77;;;-2.47;83.51
34034;BME280;63481;52.588;22.472;2023-03-01T02:09:47;101347.84;;;-2.49;83.58
34034;BME280;63481;52.588;22.472;2023-03-01T02:10:40;101347.77;;;-2.50;83.75
34034;BME280;63481;52.588;22.472;2023-03-01T02:11:34;101346.79;;;-2.43;83.58
34034;BME280;63481;52.588;22.472;2023-03-01T02:12:30;101343.64;;;-2.43;83.49
34034;BME280;63481;52.588;22.472;2023-03-01T02:13:23;101341.79;;;-2.38;83.01
34034;BME280;63481;52.588;22.472;2023-03-01T02:14:16;101342.92;;;-2.34;83.45
34034;BME280;63481;52.588;22.472;2023-03-01T02:15:09;101338.31;;;-2.33;83.13
34034;BME280;63481;52.588;22.472;2023-03-01T02:16:05;101338.34;;;-2.31;83.48
34034;BME280;63481;52.588;22.472;2023-03-01T02:17:00;101343.88;;;-2.27;83.26
34034;BME280;63481;52.588;22.472;2023-03-01T02:17:56;101343.85;;;-2.30;83.20
34034;BME280;63481;52.588;22.472;2023-03-01T02:18:49;101340.10;;;-2.28;83.31
34034;BME280;63481;52.588;22.472;2023-03-01T02:22:11;101342.13;;;-2.17;82.76
34034;BME280;63481;52.588;22.472;2023-03-01T02:23:08;101342.58;;;-2.13;82.42
34034;BME280;63481;52.588;22.472;2023-03-01T02:24:56;101338.28;;;-2.11;82.44
34034;BME280;63481;52.588;22.472;2023-03-01T02:25:25;101336.84;;;-2.13;82.46
34034;BME280;63481;52.588;22.472;2023-03-01T02:26:36;101330.38;;;-2.13;82.84
34034;BME280;63481;52.588;22.472;2023-03-01T02:27:54;101335.39;;;-2.04;83.04
34034;BME280;63481;52.588;22.472;2023-03-01T02:28:50;101333.95;;;-1.98;82.38
34034;BME280;63481;52.588;22.472;2023-03-01T02:29:43;101334.18;;;-1.96;82.04
34034;BME280;63481;52.588;22.472;2023-03-01T02:30:36;101335.30;;;-1.93;82.15
34034;BME280;63481;52.588;22.472;2023-03-01T02:31:30;101331.80;;;-1.92;81.54
34034;BME280;63481;52.588;22.472;2023-03-01T02:32:35;101331.34;;;-1.88;81.86
34034;BME280;63481;52.588;22.472;2023-03-01T02:33:29;101327.65;;;-1.85;81.75
34034;BME280;63481;52.588;22.472;2023-03-01T02:34:26;101327.40;;;-1.84;81.17
34034;BME280;63481;52.588;22.472;2023-03-01T02:35:20;101322.56;;;-1.84;81.51
34034;BME280;63481;52.588;22.472;2023-03-01T02:36:19;101322.36;;;-1.81;81.69
34034;BME280;63481;52.588;22.472;2023-03-01T02:37:14;101324.20;;;-1.77;81.65
34034;BME280;63481;52.588;22.472;2023-03-01T02:38:12;101323.35;;;-1.74;81.92
34034;BME280;63481;52.588;22.472;2023-03-01T02:39:07;101325.92;;;-1.74;81.75
34034;BME280;63481;52.588;22.472;2023-03-01T02:40:11;101323.61;;;-1.73;81.65
34034;BME280;63481;52.588;22.472;2023-03-01T02:41:06;101326.75;;;-1.74;81.03
34034;BME280;63481;52.588;22.472;2023-03-01T02:42:01;101326.48;;;-1.74;81.15
34034;BME280;63481;52.588;22.472;2023-03-01T02:42:58;101332.24;;;-1.70;81.46
34034;BME280;63481;52.588;22.472;2023-03-01T02:43:51;101333.05;;;-1.69;81.24
34034;BME280;63481;52.588;22.472;2023-03-01T02:44:44;101329.81;;;-1.70;80.86
34034;BME280;63481;52.588;22.472;2023-03-01T02:45:47;101331.63;;;-1.68;81.50
34034;BME280;63481;52.588;22.472;2023-03-01T02:46:46;101334.86;;;-1.72;81.40
34034;BME280;63481;52.588;22.472;2023-03-01T02:47:39;101334.87;;;-1.70;81.06
34034;BME280;63481;52.588;22.472;2023-03-01T02:48:48;101328.89;;;-1.66;80.79
34034;BME280;63481;52.588;22.472;2023-03-01T02:49:42;101328.44;;;-1.65;80.94
34034;BME280;63481;52.588;22.472;2023-03-01T02:50:56;101327.31;;;-1.66;81.20
34034;BME280;63481;52.588;22.472;2023-03-01T02:52:55;101331.65;;;-1.69;81.27
34034;BME280;63481;52.588;22.472;2023-03-01T02:54:39;101320.66;;;-1.74;81.26
34034;BME280;63481;52.588;22.472;2023-03-01T02:55:35;101322.02;;;-1.76;81.42
34034;BME280;63481;52.588;22.472;2023-03-01T02:56:28;101318.34;;;-1.73;81.36
34034;BME280;63481;52.588;22.472;2023-03-01T02:57:23;101322.12;;;-1.69;81.58
34034;BME280;63481;52.588;22.472;2023-03-01T02:58:17;101324.48;;;-1.68;81.40
34034;BME280;63481;52.588;22.472;2023-03-01T02:59:10;101324.88;;;-1.69;80.92
34034;BME280;63481;52.588;22.472;2023-03-01T03:00:08;101323.27;;;-1.68;81.36
34034;BME280;63481;52.588;22.472;2023-03-01T03:01:02;101321.73;;;-1.69;81.16
34034;BME280;63481;52.588;22.472;2023-03-01T03:01:55;101317.60;;;-1.67;81.50
34034;BME280;63481;52.588;22.472;2023-03-01T03:02:52;101314.48;;;-1.60;81.59
34034;BME280;63481;52.588;22.472;2023-03-01T03:03:46;101320.77;;;-1.60;80.75
34034;BME280;63481;52.588;22.472;2023-03-01T03:04:40;101321.98;;;-1.60;80.88
34034;BME280;63481;52.588;22.472;2023-03-01T03:05:33;101323.33;;;-1.57;80.46
34034;BME280;63481;52.588;22.472;2023-03-01T03:06:26;101321.23;;;-1.56;80.55
34034;BME280;63481;52.588;22.472;2023-03-01T03:07:20;101319.84;;;-1.61;80.04
34034;BME280;63481;52.588;22.472;2023-03-01T03:08:13;101317.42;;;-1.59;80.58
34034;BME280;63481;52.588;22.472;2023-03-01T03:09:06;101311.93;;;-1.58;81.04
34034;BME280;63481;52.588;22.472;2023-03-01T03:10:01;101308.42;;;-1.55;80.71
34034;BME280;63481;52.588;22.472;2023-03-01T03:10:54;101304.73;;;-1.55;80.73
34034;BME280;63481;52.588;22.472;2023-03-01T03:11:48;101301.17;;;-1.54;80.58
34034;BME280;63481;52.588;22.472;2023-03-01T03:12:41;101296.65;;;-1.51;80.46
34034;BME280;63481;52.588;22.472;2023-03-01T03:13:34;101293.70;;;-1.46;80.24
34034;BME280;63481;52.588;22.472;2023-03-01T03:14:27;101297.02;;;-1.44;80.24
34034;BME280;63481;52.588;22.472;2023-03-01T03:15:20;101293.44;;;-1.43;80.15
34034;BME280;63481;52.588;22.472;2023-03-01T03:16:14;101293.45;;;-1.40;80.00
34034;BME280;63481;52.588;22.472;2023-03-01T03:17:07;101292.52;;;-1.39;79.76
34034;BME280;63481;52.588;22.472;2023-03-01T03:18:00;101294.04;;;-1.39;79.73
34034;BME280;63481;52.588;22.472;2023-03-01T03:18:52;101293.29;;;-1.41;79.63
34034;BME280;63481;52.588;22.472;2023-03-01T03:19:45;101299.59;;;-1.41;80.05
34034;BME280;63481;52.588;22.472;2023-03-01T03:20:39;101297.55;;;-1.44;79.82
34034;BME280;63481;52.588;22.472;2023-03-01T03:21:33;101300.11;;;-1.46;80.47
34034;BME280;63481;52.588;22.472;2023-03-01T03:22:26;101304.85;;;-1.47;80.32
34034;BME280;63481;52.588;22.472;2023-03-01T03:23:21;101309.48;;;-1.45;79.73
34034;BME280;63481;52.588;22.472;2023-03-01T03:24:14;101308.97;;;-1.45;79.48
34034;BME280;63481;52.588;22.472;2023-03-01T03:25:07;101310.27;;;-1.46;79.29
34034;BME280;63481;52.588;22.472;2023-03-01T03:26:05;101312.26;;;-1.45;79.11
34034;BME280;63481;52.588;22.472;2023-03-01T03:26:58;101309.43;;;-1.45;79.11
34034;BME280;63481;52.588;22.472;2023-03-01T03:27:52;101309.85;;;-1.46;79.67
34034;BME280;63481;52.588;22.472;2023-03-01T03:28:51;101313.96;;;-1.47;79.74
34034;BME280;63481;52.588;22.472;2023-03-01T03:29:44;101313.25;;;-1.49;79.58
34034;BME280;63481;52.588;22.472;2023-03-01T03:30:38;101311.96;;;-1.48;80.00
34034;BME280;63481;52.588;22.472;2023-03-01T03:31:31;101313.40;;;-1.46;80.39
34034;BME280;63481;52.588;22.472;2023-03-01T03:32:24;101310.02;;;-1.48;80.24
34034;BME280;63481;52.588;22.472;2023-03-01T03:33:17;101309.05;;;-1.49;79.74
34034;BME280;63481;52.588;22.472;2023-03-01T03:34:09;101308.31;;;-1.51;80.66
34034;BME280;63481;52.588;22.472;2023-03-01T03:35:10;101305.55;;;-1.49;80.31
34034;BME280;63481;52.588;22.472;2023-03-01T03:36:03;101302.95;;;-1.54;80.17
34034;BME280;63481;52.588;22.472;2023-03-01T03:36:56;101301.87;;;-1.59;80.59
34034;BME280;63481;52.588;22.472;2023-03-01T03:37:52;101299.36;;;-1.60;81.04
34034;BME280;63481;52.588;22.472;2023-03-01T03:38:58;101296.50;;;-1.60;81.00
34034;BME280;63481;52.588;22.472;2023-03-01T03:39:51;101294.36;;;-1.64;80.97
34034;BME280;63481;52.588;22.472;2023-03-01T03:40:52;101292.50;;;-1.62;80.23
34034;BME280;63481;52.588;22.472;2023-03-01T03:41:46;101288.45;;;-1.66;80.08
34034;BME280;63481;52.588;22.472;2023-03-01T03:42:39;101286.85;;;-1.66;80.20
34034;BME280;63481;52.588;22.472;2023-03-01T03:43:34;101282.92;;;-1.67;80.34
34034;BME280;63481;52.588;22.472;2023-03-01T03:44:27;101281.34;;;-1.70;80.48
34034;BME280;63481;52.588;22.472;2023-03-01T03:45:20;101280.77;;;-1.71;80.63
34034;BME280;63481;52.588;22.472;2023-03-01T03:46:13;101278.35;;;-1.77;80.77
34034;BME280;63481;52.588;22.472;2023-03-01T03:47:06;101274.73;;;-1.77;81.17
34034;BME280;63481;52.588;22.472;2023-03-01T03:47:59;101275.38;;;-1.79;81.40
34034;BME280;63481;52.588;22.472;2023-03-01T03:48:52;101274.35;;;-1.85;81.13
34034;BME280;63481;52.588;22.472;2023-03-01T03:49:45;101272.83;;;-1.88;81.51
34034;BME280;63481;52.588;22.472;2023-03-01T03:50:39;101268.81;;;-1.88;81.91
34034;BME280;63481;52.588;22.472;2023-03-01T03:51:34;101267.32;;;-1.90;81.74
34034;BME280;63481;52.588;22.472;2023-03-01T03:52:27;101266.35;;;-1.88;81.68
34034;BME280;63481;52.588;22.472;2023-03-01T03:53:22;101263.50;;;-1.87;81.68
34034;BME280;63481;52.588;22.472;2023-03-01T03:54:15;101265.27;;;-1.87;81.90
34034;BME280;63481;52.588;22.472;2023-03-01T03:55:09;101266.61;;;-1.89;81.69
34034;BME280;63481;52.588;22.472;2023-03-01T03:56:03;101264.23;;;-1.90;81.48
34034;BME280;63481;52.588;22.472;2023-03-01T03:56:56;101263.85;;;-1.89;81.30
34034;BME280;63481;52.588;22.472;2023-03-01T03:57:50;101266.84;;;-1.93;81.51
34034;BME280;63481;52.588;22.472;2023-03-01T03:58:44;101266.16;;;-1.95;81.50
34034;BME280;63481;52.588;22.472;2023-03-01T03:59:37;101265.62;;;-1.95;81.89
34034;BME280;63481;52.588;22.472;2023-03-01T04:00:30;101266.72;;;-1.96;82.15
34034;BME280;63481;52.588;22.472;2023-03-01T04:01:24;101268.83;;;-1.99;81.97
34034;BME280;63481;52.588;22.472;2023-03-01T04:02:17;101271.67;;;-2.00;81.50
34034;BME280;63481;52.588;22.472;2023-03-01T04:03:16;101268.46;;;-1.98;81.91
34034;BME280;63481;52.588;22.472;2023-03-01T04:04:09;101271.93;;;-1.98;82.07
34034;BME280;63481;52.588;22.472;2023-03-01T04:05:03;101270.29;;;-2.00;81.73
34034;BME280;63481;52.588;22.472;2023-03-01T04:06:00;101270.93;;;-1.99;82.07
34034;BME280;63481;52.588;22.472;2023-03-01T04:06:54;101265.32;;;-2.01;81.99
34034;BME280;63481;52.588;22.472;2023-03-01T04:07:47;101265.89;;;-2.02;81.99
34034;BME280;63481;52.588;22.472;2023-03-01T04:08:40;101268.19;;;-2.02;81.92
34034;BME280;63481;52.588;22.472;2023-03-01T04:09:34;101267.48;;;-2.02;81.95
34034;BME280;63481;52.588;22.472;2023-03-01T04:10:29;101274.75;;;-2.01;82.30
34034;BME280;63481;52.588;22.472;2023-03-01T04:11:22;101270.77;;;-2.02;82.15
34034;BME280;63481;52.588;22.472;2023-03-01T04:12:18;101271.80;;;-2.04;82.36
34034;BME280;63481;52.588;22.472;2023-03-01T04:13:21;101270.58;;;-2.04;82.59
34034;BME280;63481;52.588;22.472;2023-03-01T04:14:15;101269.06;;;-2.05;82.93
34034;BME280;63481;52.588;22.472;2023-03-01T04:15:10;101273.06;;;-2.05;82.64
34034;BME280;63481;52.588;22.472;2023-03-01T04:16:06;101273.06;;;-2.05;82.78
34034;BME280;63481;52.588;22.472;2023-03-01T04:16:58;101272.80;;;-2.04;83.11
34034;BME280;63481;52.588;22.472;2023-03-01T04:17:52;101273.61;;;-2.00;82.93
34034;BME280;63481;52.588;22.472;2023-03-01T04:18:47;101276.77;;;-1.98;82.51
34034;BME280;63481;52.588;22.472;2023-03-01T04:19:39;101274.49;;;-1.98;82.59
34034;BME280;63481;52.588;22.472;2023-03-01T04:20:34;101269.73;;;-1.97;82.96
34034;BME280;63481;52.588;22.472;2023-03-01T04:21:27;101269.27;;;-1.95;82.70
34034;BME280;63481;52.588;22.472;2023-03-01T04:22:20;101269.30;;;-1.95;82.32
34034;BME280;63481;52.588;22.472;2023-03-01T04:23:17;101267.50;;;-1.95;82.18
34034;BME280;63481;52.588;22.472;2023-03-01T04:24:12;101265.10;;;-1.96;82.13
34034;BME280;63481;52.588;22.472;2023-03-01T04:25:06;101270.86;;;-1.95;82.21
34034;BME280;63481;52.588;22.472;2023-03-01T04:25:59;101273.76;;;-1.97;82.54
34034;BME280;63481;52.588;22.472;2023-03-01T04:26:53;101271.85;;;-1.97;82.97
34034;BME280;63481;52.588;22.472;2023-03-01T04:27:46;101271.62;;;-1.96;82.58
34034;BME280;63481;52.588;22.472;2023-03-01T04:28:41;101277.95;;;-2.00;82.58
34034;BME280;63481;52.588;22.472;2023-03-01T04:29:37;101273.43;;;-2.02;82.90
34034;BME280;63481;52.588;22.472;2023-03-01T04:30:30;101275.20;;;-2.03;83.04
34034;BME280;63481;52.588;22.472;2023-03-01T04:31:27;101277.23;;;-2.02;83.32
34034;BME280;63481;52.588;22.472;2023-03-01T04:32:20;101277.03;;;-2.01;82.71
34034;BME280;63481;52.588;22.472;2023-03-01T04:33:13;101279.98;;;-2.01;82.84
34034;BME280;63481;52.588;22.472;2023-03-01T04:34:05;101281.90;;;-1.99;82.87
34034;BME280;63481;52.588;22.472;2023-03-01T04:34:58;101280.24;;;-2.00;82.90
34034;BME280;63481;52.588;22.472;2023-03-01T04:35:52;101282.77;;;-1.96;83.05
34034;BME280;63481;52.588;22.472;2023-03-01T04:36:45;101276.98;;;-1.93;82.69
34034;BME280;63481;52.588;22.472;2023-03-01T04:37:39;101279.58;;;-1.90;82.56
34034;BME280;63481;52.588;22.472;2023-03-01T04:38:36;101275.98;;;-1.91;82.49
34034;BME280;63481;52.588;22.472;2023-03-01T04:39:30;101279.39;;;-1.92;82.39
34034;BME280;63481;52.588;22.472;2023-03-01T04:40:24;101278.65;;;-1.94;82.71
34034;BME280;63481;52.588;22.472;2023-03-01T04:41:18;101281.00;;;-1.96;82.65
34034;BME280;63481;52.588;22.472;2023-03-01T04:42:12;101282.98;;;-1.97;82.47
34034;BME280;63481;52.588;22.472;2023-03-01T04:43:06;101279.77;;;-1.98;82.08
34034;BME280;63481;52.588;22.472;2023-03-01T04:43:59;101281.52;;;-2.01;82.72
34034;BME280;63481;52.588;22.472;2023-03-01T04:44:53;101280.35;;;-2.02;83.04
34034;BME280;63481;52.588;22.472;2023-03-01T04:45:46;101276.34;;;-2.02;82.84
34034;BME280;63481;52.588;22.472;2023-03-01T04:46:39;101279.22;;;-2.00;82.68
34034;BME280;63481;52.588;22.472;2023-03-01T04:47:32;101275.27;;;-1.99;82.90
34034;BME280;63481;52.588;22.472;2023-03-01T04:48:25;101277.55;;;-1.99;83.12
34034;BME280;63481;52.588;22.472;2023-03-01T04:49:18;101277.08;;;-2.00;83.50
34034;BME280;63481;52.588;22.472;2023-03-01T04:50:12;101277.48;;;-1.98;83.69
34034;BME280;63481;52.588;22.472;2023-03-01T04:51:08;101275.73;;;-1.93;83.31